Time;durP1;ratioP1;P1;durP2;ratioP2;P2;SDS_P1;SDS_P2;PMS_P1;PMS_P2;Temp;Humidity;BMP_temperature;BMP_pressure;BME280_temperature;BME280_humidity;BME280_pressure;Samples;Min_cycle;Max_cycle;Signal;HPM_P1;HPM_P2
2022/01/08 00:00:14;;;;;;;8.45;5.35;;;;;;;0.65;79.59;93835.66;5022845;28;20412;-73
2022/01/08 00:02:41;;;;;;;7.75;4.95;;;;;;;0.65;79.18;93843.50;5010223;28;20548;-74
2022/01/08 00:05:07;;;;;;;7.85;4.70;;;;;;;0.76;78.01;93845.19;5017857;28;20041;-73
2022/01/08 00:07:33;;;;;;;12.43;5.10;;;;;;;0.84;77.23;93846.53;5015202;28;20218;-73
2022/01/08 00:09:58;;;;;;;8.15;5.57;;;;;;;0.69;77.70;93815.78;5018005;28;20119;-74
2022/01/08 00:12:25;;;;;;;10.02;5.60;;;;;;;0.61;77.10;93816.28;5016342;28;20672;-73
2022/01/08 00:14:51;;;;;;;8.05;4.45;;;;;;;0.90;77.19;93834.25;5023462;28;20042;-74
2022/01/08 00:17:16;;;;;;;9.40;5.78;;;;;;;1.21;75.97;93849.13;5017599;28;20609;-74
2022/01/08 00:19:42;;;;;;;8.32;5.57;;;;;;;1.01;76.18;93823.59;5022336;28;20025;-73
2022/01/08 00:22:08;;;;;;;8.88;5.00;;;;;;;1.09;75.65;93840.66;5027396;28;20044;-74
2022/01/08 00:24:34;;;;;;;7.47;4.70;;;;;;;0.97;75.73;93833.00;5014041;28;20048;-73
2022/01/08 00:27:00;;;;;;;8.82;5.72;;;;;;;0.86;76.57;93830.56;5028809;28;20071;-74
2022/01/08 00:29:25;;;;;;;5.32;4.15;;;;;;;0.56;76.93;93800.53;5017895;28;20111;-73
2022/01/08 00:31:50;;;;;;;9.45;4.95;;;;;;;0.77;76.74;93807.50;5022091;28;20041;-74
2022/01/08 00:34:16;;;;;;;9.23;5.15;;;;;;;0.54;77.42;93792.16;5015031;28;20683;-73
2022/01/08 00:36:41;;;;;;;8.02;4.97;;;;;;;0.64;77.17;93797.44;5028177;28;20678;-74
2022/01/08 00:39:07;;;;;;;8.10;4.13;;;;;;;0.80;77.17;93812.22;5011674;28;20073;-74
2022/01/08 00:41:32;;;;;;;7.72;4.50;;;;;;;0.36;77.98;93793.31;5025156;28;20037;-73
2022/01/08 00:43:57;;;;;;;7.25;5.20;;;;;;;0.62;77.95;93796.91;5014841;28;20024;-74
2022/01/08 00:46:23;;;;;;;6.93;4.90;;;;;;;0.74;77.46;93807.97;5023369;28;20044;-73
2022/01/08 00:48:48;;;;;;;6.25;3.88;;;;;;;0.82;77.40;93803.31;4997488;28;20072;-74
2022/01/08 00:51:14;;;;;;;11.02;5.10;;;;;;;0.63;77.58;93795.09;5018051;28;20460;-73
2022/01/08 00:53:39;;;;;;;6.97;4.45;;;;;;;0.66;77.42;93813.69;5018312;28;20293;-73
2022/01/08 00:56:05;;;;;;;8.30;4.32;;;;;;;0.60;77.91;93806.84;5009844;28;20124;-72
2022/01/08 00:58:31;;;;;;;6.72;4.15;;;;;;;0.51;78.18;93782.16;5022696;28;20149;-74
2022/01/08 01:00:57;;;;;;;8.15;4.55;;;;;;;0.60;78.10;93813.88;5014805;28;20488;-74
2022/01/08 01:03:22;;;;;;;5.93;4.38;;;;;;;0.54;77.71;93786.94;5020593;28;20095;-74
2022/01/08 01:05:49;;;;;;;7.57;4.50;;;;;;;0.86;77.41;93799.94;5028941;28;20041;-74
2022/01/08 01:08:15;;;;;;;7.35;4.53;;;;;;;0.76;77.49;93784.97;5025797;28;20079;-75
2022/01/08 01:10:41;;;;;;;4.88;3.78;;;;;;;0.78;77.16;93793.38;5018112;28;20460;-74
2022/01/08 01:13:09;;;;;;;7.38;4.88;;;;;;;1.06;76.60;93788.81;5028261;28;20045;-74
2022/01/08 01:15:34;;;;;;;7.05;4.22;;;;;;;0.85;76.45;93789.72;5017974;28;20037;-74
2022/01/08 01:17:59;;;;;;;6.40;3.40;;;;;;;1.19;75.74;93790.94;5025437;28;20079;-74
2022/01/08 01:20:25;;;;;;;6.80;3.30;;;;;;;1.42;75.10;93792.38;5031565;28;20037;-74
2022/01/08 01:22:58;;;;;;;9.60;5.10;;;;;;;1.16;75.51;93794.09;5013951;28;20013;-75
2022/01/08 01:25:31;;;;;;;8.05;4.47;;;;;;;1.64;74.27;93791.13;5023271;28;20091;-74
2022/01/08 01:47:01;;;;;;;5.25;2.83;;;;;;;3.88;64.20;93771.44;5021616;28;20575;-75
2022/01/08 01:49:27;;;;;;;3.15;2.88;;;;;;;3.62;62.91;93748.97;5019257;28;20052;-74
2022/01/08 01:51:53;;;;;;;4.35;3.40;;;;;;;3.82;62.81;93759.34;5031320;28;20086;-74
2022/01/08 01:54:18;;;;;;;5.68;3.38;;;;;;;4.12;62.36;93753.91;5023606;28;20394;-73
2022/01/08 01:56:44;;;;;;;6.10;3.33;;;;;;;4.03;61.65;93752.91;5024989;28;20055;-73
2022/01/08 01:59:09;;;;;;;4.72;3.47;;;;;;;3.79;61.04;93709.94;5026323;28;20417;-74
2022/01/08 02:01:35;;;;;;;4.78;3.22;;;;;;;3.94;61.25;93730.88;5023535;28;20473;-74
2022/01/08 02:04:00;;;;;;;4.10;3.03;;;;;;;4.43;60.41;93743.19;5001746;28;20517;-73
2022/01/08 02:06:26;;;;;;;5.03;2.88;;;;;;;3.65;60.81;93715.00;5029397;28;20082;-72
2022/01/08 02:08:51;;;;;;;4.13;3.00;;;;;;;4.09;60.90;93741.31;5010327;28;20580;-75
2022/01/08 02:11:19;;;;;;;4.60;3.15;;;;;;;3.98;60.32;93737.16;5024459;28;20037;-72
2022/01/08 02:13:45;;;;;;;4.95;3.30;;;;;;;4.39;59.69;93724.53;5020254;28;20308;-73
2022/01/08 02:16:17;;;;;;;5.05;3.92;;;;;;;4.29;59.67;93729.84;5014067;28;20045;-73
2022/01/08 02:18:44;;;;;;;8.10;2.95;;;;;;;3.99;60.32;93719.53;5023256;28;20040;-72
2022/01/08 02:21:10;;;;;;;6.18;2.90;;;;;;;3.06;62.08;93690.59;5024083;28;20083;-73
2022/01/08 02:23:36;;;;;;;3.92;2.53;;;;;;;2.14;66.64;93691.84;5025924;28;20497;-72
2022/01/08 02:26:06;;;;;;;4.53;2.92;;;;;;;2.15;68.26;93702.06;5019426;28;20032;-72
2022/01/08 02:28:32;;;;;;;3.63;2.45;;;;;;;1.81;69.60;93693.13;5015662;28;20041;-75
2022/01/08 02:30:57;;;;;;;3.40;2.45;;;;;;;1.10;71.23;93648.41;5023655;28;20404;-75
2022/01/08 02:33:24;;;;;;;3.35;2.25;;;;;;;1.09;72.76;93683.50;5017307;28;20406;-73
2022/01/08 02:35:50;;;;;;;4.50;2.90;;;;;;;0.90;73.78;93679.78;5021677;28;20390;-75
2022/01/08 02:38:15;;;;;;;3.33;3.00;;;;;;;0.68;74.95;93685.97;5022996;28;20032;-74
2022/01/08 02:40:49;;;;;;;4.53;2.15;;;;;;;0.43;75.65;93654.44;5022133;28;20155;-75
2022/01/08 02:43:15;;;;;;;4.57;3.10;;;;;;;0.46;76.50;93674.84;5019127;28;20561;-72
2022/01/08 02:45:40;;;;;;;4.28;2.75;;;;;;;0.60;76.32;93680.41;5022466;28;20037;-75
2022/01/08 02:48:06;;;;;;;2.97;2.47;;;;;;;0.29;76.82;93643.66;5020001;28;20048;-74
2022/01/08 02:50:31;;;;;;;5.28;3.58;;;;;;;0.17;77.41;93644.88;5021850;28;20497;-75
2022/01/08 02:52:56;;;;;;;3.40;2.72;;;;;;;0.06;77.74;93624.91;5024596;28;20079;-75
2022/01/08 02:55:22;;;;;;;3.35;2.53;;;;;;;0.29;78.01;93661.97;5015851;28;20392;-75
2022/01/08 02:57:48;;;;;;;4.78;3.17;;;;;;;0.04;78.21;93645.31;5026672;28;20037;-71
2022/01/08 03:00:16;;;;;;;5.38;3.65;;;;;;;0.25;78.40;93663.47;5019830;28;20048;-74
2022/01/08 03:02:43;;;;;;;4.25;3.47;;;;;;;0.19;78.64;93661.91;5013170;28;20722;-71
2022/01/08 03:05:11;;;;;;;3.38;2.40;;;;;;;0.24;78.81;93661.13;5020634;28;20218;-76
2022/01/08 03:07:39;;;;;;;3.83;3.00;;;;;;;0.11;78.96;93656.31;5023837;28;20029;-74
2022/01/08 03:10:06;;;;;;;2.95;2.58;;;;;;;0.10;78.94;93654.78;4997756;28;20641;-72
2022/01/08 03:12:31;;;;;;;4.45;3.00;;;;;;;-0.05;79.02;93644.22;4999938;28;20415;-74
2022/01/08 03:14:57;;;;;;;3.35;2.75;;;;;;;0.02;79.05;93636.91;4993821;28;20034;-74
2022/01/08 03:17:22;;;;;;;3.22;2.70;;;;;;;0.11;78.25;93630.16;5000613;28;20033;-75
2022/01/08 03:19:51;;;;;;;3.20;2.55;;;;;;;0.17;78.77;93657.94;5003438;28;20024;-75
2022/01/08 03:22:17;;;;;;;3.20;2.40;;;;;;;0.20;78.96;93667.91;5000558;28;20042;-74
2022/01/08 03:24:42;;;;;;;3.97;2.67;;;;;;;0.22;78.75;93671.06;4996679;28;20042;-74
2022/01/08 03:27:08;;;;;;;2.88;1.98;;;;;;;0.15;78.87;93652.19;5006765;28;20057;-75
2022/01/08 03:29:36;;;;;;;4.20;2.88;;;;;;;0.29;78.46;93661.16;5002956;28;20040;-74
2022/01/08 03:32:03;;;;;;;3.03;2.15;;;;;;;0.37;78.74;93679.00;4998624;28;20060;-71
2022/01/08 03:34:28;;;;;;;2.70;2.15;;;;;;;0.33;78.87;93672.69;5000541;28;20497;-72
2022/01/08 03:36:54;;;;;;;3.10;2.58;;;;;;;0.33;78.89;93670.88;5001327;28;20044;-72
2022/01/08 03:39:21;;;;;;;2.75;2.55;;;;;;;0.19;78.98;93637.56;5001039;28;20042;-73
2022/01/08 03:41:47;;;;;;;4.50;2.80;;;;;;;0.26;78.62;93653.81;4986121;28;20045;-72
2022/01/08 03:44:13;;;;;;;4.72;2.78;;;;;;;0.27;79.05;93655.38;4995446;28;20532;-72
2022/01/08 03:46:38;;;;;;;4.60;2.40;;;;;;;0.38;78.83;93658.84;4989679;28;20107;-73
2022/01/08 03:49:25;;;;;;;3.13;2.47;;;;;;;0.37;78.71;93652.84;4996718;28;20394;-72
2022/01/08 03:51:53;;;;;;;4.03;2.17;;;;;;;0.39;79.12;93648.16;5000212;28;20518;-74
2022/01/08 03:54:21;;;;;;;6.43;3.42;;;;;;;0.35;79.08;93637.38;4997517;28;20616;-72
2022/01/08 03:56:47;;;;;;;4.90;4.00;;;;;;;0.21;79.38;93641.50;5009537;28;20076;-72
2022/01/08 03:59:12;;;;;;;3.38;3.08;;;;;;;0.24;79.36;93622.69;5010873;28;20135;-72
2022/01/08 04:01:38;;;;;;;3.25;2.65;;;;;;;0.18;79.50;93625.53;4996462;28;20040;-72
2022/01/08 04:04:11;;;;;;;3.47;2.65;;;;;;;0.19;79.85;93621.88;5010725;28;20379;-73
2022/01/08 04:06:36;;;;;;;3.95;2.70;;;;;;;-0.08;80.19;93601.81;4988177;28;20036;-72
2022/01/08 04:09:02;;;;;;;3.90;3.38;;;;;;;0.06;80.79;93627.53;5018197;28;20617;-72
2022/01/08 04:11:28;;;;;;;4.57;2.65;;;;;;;-0.11;80.89;93612.81;5026885;28;20655;-72
2022/01/08 04:13:55;;;;;;;5.00;3.22;;;;;;;-0.12;81.75;93632.13;5023207;28;20032;-72
2022/01/08 04:16:27;;;;;;;2.40;2.17;;;;;;;0.02;81.49;93632.47;5023385;28;20053;-72
2022/01/08 04:18:52;;;;;;;4.43;2.53;;;;;;;-0.19;82.12;93623.69;5025660;28;20099;-72
2022/01/08 04:24:02;;;;;;;4.65;2.78;;;;;;;-0.45;82.05;93569.69;5024508;28;20492;-73
2022/01/08 04:26:28;;;;;;;5.60;3.45;;;;;;;-0.22;82.23;93612.97;5026249;28;20049;-72
2022/01/08 04:28:54;;;;;;;3.13;2.25;;;;;;;0.04;81.95;93632.25;5018799;28;20028;-73
2022/01/08 04:31:21;;;;;;;3.40;2.88;;;;;;;-0.08;81.96;93638.44;5006550;28;20475;-72
2022/01/08 04:33:49;;;;;;;4.85;2.67;;;;;;;-0.01;81.90;93627.75;5025579;28;20041;-72
2022/01/08 04:36:15;;;;;;;4.68;2.50;;;;;;;-0.03;82.34;93629.03;5001140;28;20037;-72
2022/01/08 04:38:40;;;;;;;2.25;2.08;;;;;;;-0.04;81.89;93630.09;5027141;28;20040;-72
2022/01/08 04:41:06;;;;;;;3.42;2.88;;;;;;;-0.01;81.78;93638.22;5015799;28;20040;-72
2022/01/08 04:43:33;;;;;;;4.05;2.90;;;;;;;0.11;81.62;93635.41;5028120;28;20042;-72
2022/01/08 04:45:58;;;;;;;5.28;3.17;;;;;;;0.07;82.14;93644.78;5021532;28;20037;-72
2022/01/08 04:48:24;;;;;;;3.92;2.05;;;;;;;0.23;81.25;93633.41;5023942;28;20085;-72
2022/01/08 04:50:49;;;;;;;3.13;2.70;;;;;;;0.14;81.00;93625.25;5021841;28;20037;-73
2022/01/08 04:53:15;;;;;;;4.47;2.58;;;;;;;0.18;81.23;93646.44;5019357;28;20269;-72
2022/01/08 04:55:40;;;;;;;4.07;2.80;;;;;;;0.05;81.25;93610.28;5022719;28;20247;-73
2022/01/08 04:58:07;;;;;;;3.60;2.13;;;;;;;0.12;81.33;93631.75;5025643;28;20106;-71
2022/01/08 05:00:33;;;;;;;3.10;2.25;;;;;;;0.18;81.02;93628.13;5003075;28;20796;-73
2022/01/08 05:02:59;;;;;;;3.45;2.58;;;;;;;0.29;80.70;93625.34;5018970;28;20029;-73
2022/01/08 05:05:26;;;;;;;3.47;2.72;;;;;;;0.44;80.46;93640.31;5021197;28;20044;-74
2022/01/08 05:07:52;;;;;;;2.50;2.15;;;;;;;0.62;79.70;93646.94;5007446;28;20393;-72
2022/01/08 05:10:17;;;;;;;2.72;1.95;;;;;;;0.50;79.50;93620.97;5019456;28;20037;-73
2022/01/08 05:12:43;;;;;;;3.67;2.72;;;;;;;0.88;78.56;93639.97;5022356;28;21145;-75
2022/01/08 05:15:09;;;;;;;3.17;2.38;;;;;;;1.20;77.86;93637.97;5028156;28;20773;-74
2022/01/08 05:17:35;;;;;;;3.22;2.28;;;;;;;1.22;77.07;93635.91;5009627;28;20049;-75
2022/01/08 05:20:07;;;;;;;4.97;2.30;;;;;;;1.39;75.76;93644.28;5026148;28;20114;-74
2022/01/08 05:22:51;;;;;;;3.45;2.28;;;;;;;1.15;76.52;93636.13;5025877;28;20048;-74
2022/01/08 05:25:20;;;;;;;2.80;2.25;;;;;;;1.48;75.56;93629.63;5015126;28;20418;-74
2022/01/08 05:27:47;;;;;;;7.35;1.90;;;;;;;1.70;75.32;93639.09;5029683;28;20045;-74
2022/01/08 05:30:15;;;;;;;2.38;2.15;;;;;;;2.08;73.60;93639.38;5020459;28;20435;-74
2022/01/08 05:32:41;;;;;;;7.72;3.95;;;;;;;2.55;71.62;93634.81;5007683;28;20037;-74
2022/01/08 05:35:07;;;;;;;3.38;2.13;;;;;;;2.55;70.81;93637.44;5017301;28;20504;-75
2022/01/08 05:37:32;;;;;;;3.88;2.78;;;;;;;2.82;69.95;93616.88;5023462;28;20120;-74
2022/01/08 05:39:58;;;;;;;3.20;2.75;;;;;;;3.36;67.98;93625.53;4999040;28;20029;-74
2022/01/08 05:42:23;;;;;;;3.78;2.67;;;;;;;3.55;66.37;93636.19;5026936;28;20041;-74
2022/01/08 05:44:49;;;;;;;3.40;2.28;;;;;;;3.55;65.12;93609.09;5026676;28;20041;-74
2022/01/08 05:47:15;;;;;;;4.88;3.40;;;;;;;3.33;65.28;93606.88;5022617;28;20489;-74
2022/01/08 05:49:41;;;;;;;7.13;4.35;;;;;;;3.80;64.30;93620.22;5026210;28;20449;-75
2022/01/08 05:52:09;;;;;;;3.28;2.25;;;;;;;3.98;62.88;93613.50;5025122;28;20048;-74
2022/01/08 05:54:35;;;;;;;4.85;3.20;;;;;;;3.98;62.42;93621.38;5023319;28;20769;-74
2022/01/08 05:57:00;;;;;;;4.25;3.20;;;;;;;3.95;62.58;93619.31;5025742;28;20037;-74
2022/01/08 05:59:27;;;;;;;7.18;3.78;;;;;;;4.04;62.71;93622.13;5021978;28;20035;-75
2022/01/08 06:01:56;;;;;;;7.00;4.55;;;;;;;4.09;61.56;93608.94;5022423;28;20048;-75
2022/01/08 06:04:23;;;;;;;9.18;5.00;;;;;;;4.35;61.08;93622.66;5018243;28;20048;-74
2022/01/08 06:06:48;;;;;;;10.88;5.43;;;;;;;4.21;60.83;93586.41;5023134;28;20072;-74
2022/01/08 06:09:14;;;;;;;6.13;3.25;;;;;;;4.34;61.05;93626.38;5024202;28;20588;-75
2022/01/08 06:11:39;;;;;;;5.38;2.65;;;;;;;4.18;61.21;93597.50;5014936;28;20134;-74
2022/01/08 06:14:05;;;;;;;3.38;2.42;;;;;;;4.53;61.06;93609.56;5006690;28;20280;-74
2022/01/08 06:16:34;;;;;;;3.03;1.80;;;;;;;3.44;62.41;93547.91;5017930;28;20406;-74
2022/01/08 06:19:06;;;;;;;3.92;1.80;;;;;;;4.32;61.30;93617.94;5025875;28;20437;-75
2022/01/08 06:21:32;;;;;;;2.53;1.80;;;;;;;4.42;61.04;93596.78;5026415;28;20095;-74
2022/01/08 06:23:57;;;;;;;2.28;1.90;;;;;;;4.51;60.57;93587.19;5001435;28;20410;-74
2022/01/08 06:26:23;;;;;;;3.55;2.33;;;;;;;4.76;59.38;93600.09;5028578;28;20562;-74
2022/01/08 06:28:51;;;;;;;3.38;2.40;;;;;;;5.01;58.36;93615.59;5006710;28;20483;-75
2022/01/08 06:31:17;;;;;;;3.38;2.72;;;;;;;4.91;58.51;93599.13;5025919;28;20033;-74
2022/01/08 06:33:43;;;;;;;3.20;2.03;;;;;;;4.41;59.31;93613.63;5017544;28;20505;-74
2022/01/08 06:36:08;;;;;;;3.13;2.42;;;;;;;4.35;61.08;93622.66;5013385;28;20715;-75
2022/01/08 06:38:33;;;;;;;4.65;2.65;;;;;;;4.47;60.48;93596.72;5027759;28;20049;-75
2022/01/08 06:41:01;;;;;;;5.35;2.15;;;;;;;4.49;60.67;93620.94;5018871;28;20033;-73
2022/01/08 06:43:27;;;;;;;6.45;2.10;;;;;;;3.79;62.43;93612.59;5025332;28;20125;-74
2022/01/08 06:45:52;;;;;;;2.45;2.25;;;;;;;2.66;67.69;93603.00;5027011;28;20362;-74
2022/01/08 06:48:17;;;;;;;3.55;2.38;;;;;;;2.17;70.04;93581.88;5022440;28;20041;-74
2022/01/08 06:50:43;;;;;;;3.85;2.83;;;;;;;1.98;72.27;93602.66;5017162;28;20036;-74
2022/01/08 06:53:08;;;;;;;4.60;3.13;;;;;;;1.68;74.05;93602.63;5015614;28;20041;-73
2022/01/08 06:55:34;;;;;;;5.45;2.42;;;;;;;1.47;75.20;93598.47;5023345;28;20519;-73
2022/01/08 06:58:00;;;;;;;3.78;2.58;;;;;;;1.28;76.33;93606.00;5028271;28;20496;-74
2022/01/08 07:00:25;;;;;;;4.13;2.80;;;;;;;1.25;76.95;93611.78;4996808;28;20037;-74
2022/01/08 07:02:51;;;;;;;3.50;2.55;;;;;;;0.91;77.96;93587.88;5020591;28;20445;-74
2022/01/08 07:05:16;;;;;;;5.05;2.35;;;;;;;0.93;79.01;93601.50;5019460;28;20501;-74
2022/01/08 07:07:42;;;;;;;3.13;2.33;;;;;;;0.83;78.98;93592.84;5006833;28;20045;-74
2022/01/08 07:10:07;;;;;;;3.13;2.75;;;;;;;1.09;78.84;93610.16;5022196;28;20037;-74
2022/01/08 07:12:33;;;;;;;3.95;2.72;;;;;;;1.05;78.77;93601.25;5021791;28;20779;-76
2022/01/08 07:14:58;;;;;;;5.80;2.03;;;;;;;1.14;78.18;93587.41;5023668;28;20537;-74
2022/01/08 07:17:24;;;;;;;3.92;2.20;;;;;;;1.39;77.69;93604.97;5012155;28;20029;-74
2022/01/08 07:19:49;;;;;;;4.18;2.58;;;;;;;1.15;77.34;93582.94;5017183;28;20029;-73
2022/01/08 07:22:15;;;;;;;4.15;2.58;;;;;;;1.04;77.75;93568.25;5024441;28;20344;-74
2022/01/08 07:24:40;;;;;;;19.10;7.28;;;;;;;0.78;77.78;93538.63;5014611;28;20366;-73
2022/01/08 07:27:06;;;;;;;3.80;3.22;;;;;;;1.15;78.24;93594.22;5027433;28;20068;-73
2022/01/08 07:29:31;;;;;;;8.80;3.58;;;;;;;1.44;78.07;93596.34;5021946;28;20045;-73
2022/01/08 07:31:56;;;;;;;3.47;2.72;;;;;;;1.49;77.31;93605.00;5020369;28;20040;-73
2022/01/08 07:34:22;;;;;;;5.10;2.88;;;;;;;1.25;77.51;93567.25;5016662;28;20037;-72
2022/01/08 07:36:48;;;;;;;3.35;2.50;;;;;;;1.46;77.10;93587.19;5022721;28;20033;-73
2022/01/08 07:39:13;;;;;;;6.43;4.53;;;;;;;1.28;77.21;93598.16;5017463;28;20068;-73
2022/01/08 07:41:39;;;;;;;4.43;3.50;;;;;;;1.34;77.20;93581.41;5024111;28;20033;-72
2022/01/08 07:44:05;;;;;;;6.25;3.55;;;;;;;1.33;76.86;93579.81;5022259;28;20369;-74
2022/01/08 07:46:30;;;;;;;9.45;4.47;;;;;;;1.66;76.58;93610.78;5020194;28;20025;-74
2022/01/08 07:48:55;;;;;;;3.67;2.13;;;;;;;1.64;76.19;93612.88;5024227;28;20461;-74
2022/01/08 07:51:21;;;;;;;3.05;2.40;;;;;;;1.48;76.75;93603.41;5021816;28;20033;-73
2022/01/08 07:53:46;;;;;;;5.88;3.47;;;;;;;1.58;77.02;93608.66;5022276;28;20045;-73
2022/01/08 07:56:12;;;;;;;4.95;2.42;;;;;;;1.58;76.87;93600.81;5017796;28;20013;-72
2022/01/08 07:58:37;;;;;;;6.40;2.50;;;;;;;1.59;77.03;93601.59;5020075;28;20024;-73
2022/01/08 08:01:03;;;;;;;5.65;2.90;;;;;;;1.56;77.18;93605.53;5020344;28;20037;-73
2022/01/08 08:03:28;;;;;;;4.38;1.95;;;;;;;1.72;76.61;93608.16;4997411;28;20164;-73
2022/01/08 08:05:54;;;;;;;3.28;1.88;;;;;;;1.85;76.33;93618.13;5020913;28;20036;-73
2022/01/08 08:08:20;;;;;;;2.92;2.30;;;;;;;1.77;76.07;93605.50;5019746;28;20041;-74
2022/01/08 08:10:48;;;;;;;5.20;2.72;;;;;;;2.01;75.79;93611.84;5005166;28;20091;-74
2022/01/08 08:13:23;;;;;;;6.40;2.55;;;;;;;1.78;75.59;93575.63;5017607;28;20033;-72
2022/01/08 08:15:49;;;;;;;2.65;2.15;;;;;;;2.00;74.34;93594.53;5018184;28;20512;-73
2022/01/08 08:18:14;;;;;;;2.03;1.70;;;;;;;2.18;72.88;93596.59;5020354;28;20069;-73
2022/01/08 08:20:41;;;;;;;2.85;2.13;;;;;;;2.10;73.46;93586.66;5021796;28;20043;-72
2022/01/08 08:23:07;;;;;;;5.30;2.08;;;;;;;2.50;73.31;93604.88;5023191;28;20052;-74
2022/01/08 08:25:33;;;;;;;4.13;2.30;;;;;;;2.66;71.90;93604.84;5021602;28;20037;-73
2022/01/08 08:27:58;;;;;;;5.85;2.78;;;;;;;2.89;71.39;93597.13;5023607;28;20068;-73
2022/01/08 08:30:24;;;;;;;3.03;2.15;;;;;;;2.82;71.23;93601.91;5018388;28;20033;-73
2022/01/08 08:32:50;;;;;;;2.40;2.17;;;;;;;2.90;71.02;93587.41;5019821;28;20501;-73
2022/01/08 08:35:16;;;;;;;3.13;2.08;;;;;;;3.08;70.35;93576.28;5022499;28;20032;-72
2022/01/08 08:37:41;;;;;;;2.13;1.92;;;;;;;2.96;69.83;93566.09;5022388;28;20040;-73
2022/01/08 08:40:09;;;;;;;2.35;2.00;;;;;;;3.37;69.08;93592.13;5017888;28;20045;-72
2022/01/08 08:42:35;;;;;;;2.70;2.15;;;;;;;3.20;67.62;93584.59;5006616;28;20031;-71
2022/01/08 08:45:03;;;;;;;5.28;2.15;;;;;;;3.02;68.16;93569.50;5024107;28;20420;-73
2022/01/08 08:47:28;;;;;;;3.38;2.10;;;;;;;2.94;68.78;93577.91;5023436;28;20043;-74
2022/01/08 08:49:54;;;;;;;3.63;2.28;;;;;;;2.72;69.75;93528.41;5021320;28;20047;-73
2022/01/08 08:52:21;;;;;;;11.57;2.80;;;;;;;2.83;70.97;93581.66;5028273;28;20378;-73
2022/01/08 08:54:46;;;;;;;4.47;2.53;;;;;;;2.88;69.70;93582.44;5005690;28;20119;-72
2022/01/08 08:57:12;;;;;;;3.53;2.38;;;;;;;2.76;68.87;93574.06;5027544;28;20041;-72
2022/01/08 08:59:38;;;;;;;2.85;1.70;;;;;;;2.74;68.31;93564.91;5008983;28;20214;-74
2022/01/08 09:02:03;;;;;;;2.90;2.13;;;;;;;2.83;67.80;93560.66;5023713;28;20453;-73
2022/01/08 09:04:29;;;;;;;2.22;1.60;;;;;;;2.80;67.69;93542.78;5020200;28;20044;-72
2022/01/08 09:06:57;;;;;;;2.65;1.98;;;;;;;2.75;67.81;93558.56;5025355;28;20047;-73
2022/01/08 09:09:26;;;;;;;2.63;1.73;;;;;;;2.77;67.44;93559.09;5019478;28;20045;-72
2022/01/08 09:11:52;;;;;;;3.00;2.08;;;;;;;2.39;67.98;93514.13;5024843;28;20064;-72
2022/01/08 09:14:18;;;;;;;4.15;1.85;;;;;;;2.72;68.31;93554.66;5021317;28;20101;-72
2022/01/08 09:16:50;;;;;;;2.40;1.95;;;;;;;2.39;67.85;93481.84;5018953;28;20219;-72
2022/01/08 09:19:17;;;;;;;3.38;1.83;;;;;;;2.89;68.11;93551.69;5003845;28;20036;-72
2022/01/08 09:21:43;;;;;;;3.33;1.98;;;;;;;2.85;67.86;93548.03;5018841;28;20493;-73
2022/01/08 09:24:10;;;;;;;3.15;2.55;;;;;;;2.79;68.51;93543.88;5009518;28;20507;-74
2022/01/08 09:26:36;;;;;;;2.83;1.88;;;;;;;2.82;68.10;93535.44;5024367;28;20038;-73
2022/01/08 09:29:01;;;;;;;3.28;2.33;;;;;;;2.88;67.90;93531.75;5023090;28;20032;-73
2022/01/08 09:31:26;;;;;;;2.92;2.15;;;;;;;2.37;67.76;93458.50;5021808;28;20040;-74
2022/01/08 09:33:52;;;;;;;6.32;2.80;;;;;;;2.67;67.97;93510.06;5021261;28;20877;-72
2022/01/08 09:36:17;;;;;;;15.13;6.47;;;;;;;2.47;67.97;93468.16;5024637;28;20124;-72
2022/01/08 09:38:43;;;;;;;6.85;2.58;;;;;;;2.88;68.10;93526.50;5027007;28;20038;-72
2022/01/08 09:41:09;;;;;;;2.97;2.45;;;;;;;2.68;68.73;93521.34;5019300;28;20492;-73
2022/01/08 09:43:36;;;;;;;6.38;2.38;;;;;;;2.87;68.82;93502.06;5026990;28;20497;-73
2022/01/08 09:46:01;;;;;;;3.70;2.22;;;;;;;2.75;69.89;93500.81;5022094;28;20088;-73
2022/01/08 09:48:26;;;;;;;3.38;2.58;;;;;;;2.69;70.22;93494.03;5023508;28;20541;-73
2022/01/08 09:50:52;;;;;;;5.38;2.80;;;;;;;2.74;70.40;93509.75;5019062;28;20132;-72
2022/01/08 09:53:17;;;;;;;4.43;2.50;;;;;;;2.65;69.99;93514.78;5004290;28;20389;-73
2022/01/08 09:55:42;;;;;;;4.05;2.55;;;;;;;2.58;70.74;93487.25;5025872;28;20021;-72
2022/01/08 09:58:09;;;;;;;3.58;2.55;;;;;;;2.48;70.96;93472.34;5021895;28;20047;-73
2022/01/08 10:00:35;;;;;;;3.45;2.13;;;;;;;2.67;70.71;93499.56;5026182;28;20043;-73
2022/01/08 10:03:21;;;;;;;3.20;2.50;;;;;;;2.69;70.73;93499.28;5019952;28;20037;-74
2022/01/08 10:05:58;;;;;;;4.82;3.05;;;;;;;2.43;71.08;93433.00;5017887;28;20057;-74
2022/01/08 10:08:25;;;;;;;3.72;2.40;;;;;;;2.80;71.17;93492.91;5016925;28;20139;-73
2022/01/08 10:11:00;;;;;;;3.45;2.50;;;;;;;2.77;70.25;93467.19;5025120;28;20052;-73
2022/01/08 10:13:29;;;;;;;2.45;2.25;;;;;;;2.71;70.56;93463.03;5015297;28;20386;-73
2022/01/08 10:18:41;;;;;;;3.38;2.70;;;;;;;2.98;70.36;93481.78;5017900;28;20059;-72
2022/01/08 10:21:20;;;;;;;4.80;3.50;;;;;;;2.85;70.83;93474.47;5018244;28;20194;-72
2022/01/08 10:23:57;;;;;;;3.70;2.17;;;;;;;2.62;71.44;93467.28;5002193;28;20123;-73
2022/01/08 10:26:33;;;;;;;3.30;2.70;;;;;;;2.80;71.62;93462.16;5022973;28;20037;-72
2022/01/08 10:29:00;;;;;;;3.97;2.92;;;;;;;2.82;71.39;93473.19;5001512;28;21114;-73
2022/01/08 10:31:39;;;;;;;6.22;2.15;;;;;;;2.71;71.63;93470.91;5017200;28;20059;-73
2022/01/08 10:34:04;;;;;;;3.75;2.30;;;;;;;2.60;71.77;93466.78;5017518;28;20033;-74
2022/01/08 10:36:38;;;;;;;3.15;2.25;;;;;;;2.76;71.67;93455.91;5009525;28;20041;-73
2022/01/08 10:39:10;;;;;;;5.22;2.42;;;;;;;2.90;71.53;93448.97;5021054;28;20512;-72
2022/01/08 10:41:41;;;;;;;7.57;2.78;;;;;;;2.97;70.78;93451.28;5017889;28;20084;-73
2022/01/08 10:44:20;;;;;;;3.22;2.90;;;;;;;2.88;71.07;93443.22;5024432;28;20029;-73
2022/01/08 10:46:54;;;;;;;4.22;2.65;;;;;;;2.85;71.31;93432.47;5020742;28;20049;-73
2022/01/08 10:49:38;;;;;;;3.80;2.28;;;;;;;3.03;71.09;93434.44;5022192;28;20044;-73
2022/01/08 10:52:12;;;;;;;2.60;2.10;;;;;;;2.88;70.23;93413.53;5024017;28;20033;-73
2022/01/08 10:54:43;;;;;;;6.97;2.65;;;;;;;3.05;70.23;93416.53;5018662;28;20036;-73
2022/01/08 10:57:12;;;;;;;3.13;2.00;;;;;;;3.07;70.03;93414.44;5024208;28;20048;-73
2022/01/08 10:59:39;;;;;;;3.00;2.40;;;;;;;3.06;69.76;93420.75;5020906;28;20032;-73
2022/01/08 11:02:09;;;;;;;4.28;2.35;;;;;;;3.17;69.75;93435.38;5020922;28;20037;-72
2022/01/08 11:04:45;;;;;;;3.38;2.13;;;;;;;3.14;69.81;93435.13;5017618;28;20049;-74
2022/01/08 11:07:34;;;;;;;4.00;2.10;;;;;;;3.11;69.75;93431.22;5017855;28;20514;-73
2022/01/08 11:10:19;;;;;;;3.15;2.80;;;;;;;3.19;69.98;93433.25;5021546;28;20041;-73
2022/01/08 11:12:51;;;;;;;3.13;2.30;;;;;;;3.30;69.05;93432.09;5023225;28;20534;-74
2022/01/08 11:17:55;;;;;;;2.42;1.90;;;;;;;3.28;68.69;93415.06;5023254;28;20051;-73
2022/01/08 11:20:25;;;;;;;2.92;2.47;;;;;;;3.40;68.99;93424.13;5021146;28;20310;-72
2022/01/08 11:22:56;;;;;;;2.78;2.22;;;;;;;3.40;68.56;93424.13;5023561;28;20029;-73
2022/01/08 11:25:23;;;;;;;5.30;3.17;;;;;;;3.33;68.91;93428.91;5022515;28;20041;-72
2022/01/08 11:27:58;;;;;;;10.35;2.67;;;;;;;3.38;69.13;93420.97;5018168;28;20124;-73
2022/01/08 11:30:29;;;;;;;3.00;2.35;;;;;;;3.34;68.63;93406.81;5016365;28;20106;-72
2022/01/08 11:33:00;;;;;;;3.13;2.08;;;;;;;3.04;69.16;93383.44;5016564;28;20056;-73
2022/01/08 11:35:26;;;;;;;3.53;2.45;;;;;;;3.55;68.37;93425.03;5012249;28;20018;-74
2022/01/08 11:37:55;;;;;;;4.75;3.13;;;;;;;3.30;68.53;93411.06;5018607;28;20040;-73
2022/01/08 11:40:24;;;;;;;3.55;2.47;;;;;;;3.29;69.09;93412.13;5017440;28;20025;-73
2022/01/08 11:42:49;;;;;;;7.72;3.53;;;;;;;3.45;68.64;93406.72;5012410;28;20080;-73
2022/01/08 11:45:28;;;;;;;9.52;3.05;;;;;;;3.46;69.05;93406.47;5021461;28;20164;-73
2022/01/08 11:47:57;;;;;;;4.47;2.83;;;;;;;3.39;69.13;93401.53;5021047;28;20033;-73
2022/01/08 11:50:29;;;;;;;5.25;2.70;;;;;;;3.45;68.86;93404.09;5021241;28;20025;-73
2022/01/08 11:53:22;;;;;;;5.80;3.33;;;;;;;3.33;69.10;93394.75;5024264;28;20029;-73
2022/01/08 11:55:53;;;;;;;6.60;3.20;;;;;;;3.44;69.14;93392.00;5023684;28;20876;-72
2022/01/08 11:58:23;;;;;;;5.10;2.75;;;;;;;3.17;69.19;93392.53;5023373;28;20413;-73
2022/01/08 12:01:12;;;;;;;3.88;2.33;;;;;;;3.39;68.98;93393.63;5024486;28;20373;-72
2022/01/08 12:03:52;;;;;;;5.75;2.95;;;;;;;3.34;68.29;93403.41;5011043;28;20049;-73
2022/01/08 12:06:27;;;;;;;2.78;2.45;;;;;;;3.11;69.39;93391.81;5019789;28;20131;-73
2022/01/08 12:09:08;;;;;;;5.17;2.97;;;;;;;3.11;70.07;93391.00;5021341;28;20543;-73